Time,TemperatureF,DewpointF,PressureIn,WindDirection,WindDirectionDegrees,WindSpeedMPH,WindSpeedGustMPH,Humidity,HourlyPrecipIn,Conditions,Clouds,dailyrainin,SoftwareType,DateUTC
2013-01-25 00:00:00,25.5,16.4,26.99,NW,315,0.0,0.0,68,0.00,,,0.00,VWS V14.01,2013-01-25 07:00:00,
2013-01-25 00:05:00,25.3,16.2,26.98,NW,315,0.0,0.0,68,0.00,,,0.00,VWS V14.01,2013-01-25 07:05:00,
2013-01-25 00:10:00,25.1,16.0,26.98,NW,315,0.0,0.0,68,0.00,,,0.00,VWS V14.01,2013-01-25 07:10:00,
2013-01-25 00:16:00,24.9,15.9,26.98,NW,315,0.0,0.0,68,0.00,,,0.00,VWS V14.01,2013-01-25 07:16:00,
2013-01-25 00:21:00,24.6,15.9,26.98,NW,315,0.0,0.0,69,0.00,,,0.00,VWS V14.01,2013-01-25 07:21:00,
2013-01-25 00:26:00,24.6,15.9,26.98,NNW,338,0.0,0.0,69,0.00,,,0.00,VWS V14.01,2013-01-25 07:26:00,
2013-01-25 00:31:00,24.6,15.9,26.98,NW,315,0.0,0.0,69,0.00,,,0.00,VWS V14.01,2013-01-25 07:31:00,
2013-01-25 00:36:00,24.4,16.0,26.98,NNW,338,0.0,0.0,70,0.00,,,0.00,VWS V14.01,2013-01-25 07:36:00,
2013-01-25 00:41:00,24.6,16.2,26.98,NW,315,0.0,0.0,70,0.00,,,0.00,VWS V14.01,2013-01-25 07:41:00,
2013-01-25 00:46:00,24.6,16.2,26.98,NW,315,0.0,0.0,70,0.00,,,0.00,VWS V14.01,2013-01-25 07:46:00,
2013-01-25 00:51:00,24.6,16.2,26.98,NW,315,0.0,0.0,70,0.00,,,0.00,VWS V14.01,2013-01-25 07:51:00,
2013-01-25 00:56:00,24.4,16.0,26.98,NW,315,0.0,0.0,70,0.00,,,0.00,VWS V14.01,2013-01-25 07:56:00,
2013-01-25 01:01:00,24.4,16.0,26.98,NW,315,0.0,0.0,70,0.00,,,0.00,VWS V14.01,2013-01-25 08:01:00,
2013-01-25 01:06:00,24.0,15.3,26.98,NW,315,0.0,0.0,69,0.00,,,0.00,VWS V14.01,2013-01-25 08:06:00,
2013-01-25 01:11:00,23.7,15.4,26.98,NW,315,0.0,0.0,70,0.00,,,0.00,VWS V14.01,2013-01-25 08:11:00,
2013-01-25 01:16:00,23.7,15.4,26.98,NW,315,0.0,0.0,70,0.00,,,0.00,VWS V14.01,2013-01-25 08:16:00,
2013-01-25 01:21:00,23.5,15.2,26.98,NW,315,0.0,0.0,70,0.00,,,0.00,VWS V14.01,2013-01-25 08:21:00,
2013-01-25 01:26:00,23.5,15.2,26.98,NW,315,0.0,0.0,70,0.00,,,0.00,VWS V14.01,2013-01-25 08:26:00,
2013-01-25 01:31:00,23.3,15.0,26.98,NW,315,0.0,0.0,70,0.00,,,0.00,VWS V14.01,2013-01-25 08:31:00,
2013-01-25 01:36:00,23.1,14.8,26.98,NW,315,0.0,0.0,70,0.00,,,0.00,VWS V14.01,2013-01-25 08:36:00,
2013-01-25 01:42:00,23.0,14.7,26.98,NW,315,0.0,0.0,70,0.00,,,0.00,VWS V14.01,2013-01-25 08:42:00,
2013-01-25 01:47:00,22.8,14.5,26.98,NW,315,0.0,0.0,70,0.00,,,0.00,VWS V14.01,2013-01-25 08:47:00,
2013-01-25 01:52:00,22.6,14.3,26.99,NW,315,0.0,0.0,70,0.00,,,0.00,VWS V14.01,2013-01-25 08:52:00,
2013-01-25 01:57:00,22.2,13.9,26.98,NW,315,0.0,0.0,70,0.00,,,0.00,VWS V14.01,2013-01-25 08:57:00,
2013-01-25 02:02:00,22.2,13.9,26.99,NW,315,0.0,0.0,70,0.00,,,0.00,VWS V14.01,2013-01-25 09:02:00,
2013-01-25 02:07:00,22.1,13.8,26.98,NW,315,0.0,0.0,70,0.00,,,0.00,VWS V14.01,2013-01-25 09:07:00,
2013-01-25 02:12:00,21.9,14.0,26.99,NW,315,0.0,0.0,71,0.00,,,0.00,VWS V14.01,2013-01-25 09:12:00,
2013-01-25 02:17:00,21.9,14.0,26.98,NW,315,0.0,0.0,71,0.00,,,0.00,VWS V14.01,2013-01-25 09:17:00,
2013-01-25 02:22:00,21.9,14.3,26.98,NW,315,0.0,0.0,72,0.00,,,0.00,VWS V14.01,2013-01-25 09:22:00,
2013-01-25 02:27:00,21.9,14.3,26.98,NW,315,0.0,0.0,72,0.00,,,0.00,VWS V14.01,2013-01-25 09:27:00,
2013-01-25 02:32:00,21.9,14.3,26.99,NW,315,0.0,0.0,72,0.00,,,0.00,VWS V14.01,2013-01-25 09:32:00,
2013-01-25 02:37:00,21.7,14.1,26.98,NW,315,0.0,0.0,72,0.00,,,0.00,VWS V14.01,2013-01-25 09:37:00,
2013-01-25 02:42:00,21.7,14.1,26.98,NW,315,0.0,0.0,72,0.00,,,0.00,VWS V14.01,2013-01-25 09:42:00,
2013-01-25 02:47:00,21.7,14.1,26.98,NW,315,0.0,0.0,72,0.00,,,0.00,VWS V14.01,2013-01-25 09:47:00,
2013-01-25 02:52:00,21.7,14.4,26.98,NW,315,0.0,0.0,73,0.00,,,0.00,VWS V14.01,2013-01-25 09:52:00,
2013-01-25 02:57:00,21.9,14.6,26.98,NW,315,0.0,0.0,73,0.00,,,0.00,VWS V14.01,2013-01-25 09:57:00,
2013-01-25 03:02:00,21.9,14.6,26.98,NW,315,0.0,0.0,73,0.00,,,0.00,VWS V14.01,2013-01-25 10:02:00,
2013-01-25 03:07:00,21.9,14.6,26.98,NW,315,0.0,0.0,73,0.00,,,0.00,VWS V14.01,2013-01-25 10:07:00,
2013-01-25 03:12:00,21.9,14.6,26.98,NW,315,0.0,0.0,73,0.00,,,0.00,VWS V14.01,2013-01-25 10:12:00,
2013-01-25 03:17:00,21.9,14.3,26.98,NW,315,0.0,0.0,72,0.00,,,0.00,VWS V14.01,2013-01-25 10:17:00,
2013-01-25 03:22:00,21.7,14.1,26.97,NW,315,0.0,0.0,72,0.00,,,0.00,VWS V14.01,2013-01-25 10:22:00,
2013-01-25 03:27:00,21.5,13.9,26.97,NW,315,0.0,0.0,72,0.00,,,0.00,VWS V14.01,2013-01-25 10:27:00,
2013-01-25 03:32:00,21.3,14.0,26.97,NW,315,0.0,0.0,73,0.00,,,0.00,VWS V14.01,2013-01-25 10:32:00,
2013-01-25 03:37:00,21.2,13.9,26.97,NW,315,0.0,0.0,73,0.00,,,0.00,VWS V14.01,2013-01-25 10:37:00,
2013-01-25 03:42:00,21.2,13.9,26.97,NW,315,0.0,0.0,73,0.00,,,0.00,VWS V14.01,2013-01-25 10:42:00,
2013-01-25 03:47:00,21.3,14.0,26.97,NW,315,0.0,0.0,73,0.00,,,0.00,VWS V14.01,2013-01-25 10:47:00,
2013-01-25 03:53:00,21.3,14.0,26.97,NW,315,0.0,0.0,73,0.00,,,0.00,VWS V14.01,2013-01-25 10:53:00,
2013-01-25 03:58:00,21.5,14.2,26.96,NW,315,0.0,0.0,73,0.00,,,0.00,VWS V14.01,2013-01-25 10:58:00,
2013-01-25 04:03:00,21.5,14.2,26.97,NW,315,0.0,0.0,73,0.00,,,0.00,VWS V14.01,2013-01-25 11:03:00,
2013-01-25 04:08:00,21.7,14.7,26.97,NW,315,0.0,0.0,74,0.00,,,0.00,VWS V14.01,2013-01-25 11:08:00,
2013-01-25 04:13:00,21.7,14.7,26.96,NW,315,0.0,0.0,74,0.00,,,0.00,VWS V14.01,2013-01-25 11:13:00,
2013-01-25 04:18:00,21.9,14.9,26.96,WNW,292,0.0,0.0,74,0.00,,,0.00,VWS V14.01,2013-01-25 11:18:00,
2013-01-25 04:23:00,21.9,14.9,26.96,WNW,292,0.0,0.0,74,0.00,,,0.00,VWS V14.01,2013-01-25 11:23:00,
2013-01-25 04:28:00,21.7,14.4,26.97,SSE,158,0.0,4.0,73,0.00,,,0.00,VWS V14.01,2013-01-25 11:28:00,
2013-01-25 04:33:00,21.3,14.0,26.96,NW,315,0.0,0.0,73,0.00,,,0.00,VWS V14.01,2013-01-25 11:33:00,
2013-01-25 04:38:00,21.0,13.7,26.97,NNW,338,0.0,0.0,73,0.00,,,0.00,VWS V14.01,2013-01-25 11:38:00,
2013-01-25 04:43:00,20.4,13.1,26.97,North,0,0.0,0.0,73,0.00,,,0.00,VWS V14.01,2013-01-25 11:43:00,
2013-01-25 04:48:00,20.4,13.1,26.96,ESE,112,0.0,0.0,73,0.00,,,0.00,VWS V14.01,2013-01-25 11:48:00,
2013-01-25 04:53:00,20.3,13.0,26.96,East,90,0.0,0.0,73,0.00,,,0.00,VWS V14.01,2013-01-25 11:53:00,
2013-01-25 04:58:00,20.3,13.4,26.96,North,0,0.0,0.0,74,0.00,,,0.00,VWS V14.01,2013-01-25 11:58:00,
2013-01-25 05:03:00,20.1,13.2,26.96,North,0,0.0,0.0,74,0.00,,,0.00,VWS V14.01,2013-01-25 12:03:00,
2013-01-25 05:08:00,20.1,13.2,26.96,North,0,0.0,0.0,74,0.00,,,0.00,VWS V14.01,2013-01-25 12:08:00,
2013-01-25 05:13:00,20.1,13.2,26.96,NNW,338,0.0,0.0,74,0.00,,,0.00,VWS V14.01,2013-01-25 12:13:00,
2013-01-25 05:18:00,19.9,13.0,26.97,NNW,338,0.0,0.0,74,0.00,,,0.00,VWS V14.01,2013-01-25 12:18:00,
2013-01-25 05:23:00,19.9,13.0,26.97,NNW,338,0.0,0.0,74,0.00,,,0.00,VWS V14.01,2013-01-25 12:23:00,
2013-01-25 05:28:00,19.9,13.0,26.97,NNW,338,0.0,0.0,74,0.00,,,0.00,VWS V14.01,2013-01-25 12:28:00,
2013-01-25 05:33:00,19.9,13.0,26.97,NNW,338,0.0,0.0,74,0.00,,,0.00,VWS V14.01,2013-01-25 12:33:00,
2013-01-25 05:38:00,19.9,13.0,26.97,NNW,338,0.0,0.0,74,0.00,,,0.00,VWS V14.01,2013-01-25 12:38:00,
2013-01-25 05:43:00,19.9,13.0,26.97,NNW,338,0.0,0.0,74,0.00,,,0.00,VWS V14.01,2013-01-25 12:43:00,
2013-01-25 05:48:00,19.7,12.8,26.97,West,270,0.0,0.0,74,0.00,,,0.00,VWS V14.01,2013-01-25 12:48:00,
2013-01-25 05:53:00,19.5,12.6,26.97,WSW,248,0.0,0.0,74,0.00,,,0.00,VWS V14.01,2013-01-25 12:53:00,
2013-01-25 05:58:00,19.2,12.3,26.97,West,270,0.0,0.0,74,0.00,,,0.00,VWS V14.01,2013-01-25 12:58:00,
2013-01-25 06:04:00,19.0,12.1,26.97,West,270,0.0,0.0,74,0.00,,,0.00,VWS V14.01,2013-01-25 13:04:00,
2013-01-25 06:09:00,18.8,11.9,26.97,West,270,0.0,0.0,74,0.00,,,0.00,VWS V14.01,2013-01-25 13:09:00,
2013-01-25 06:14:00,18.6,11.7,26.97,West,270,0.0,0.0,74,0.00,,,0.00,VWS V14.01,2013-01-25 13:14:00,
2013-01-25 06:19:00,18.3,11.4,26.97,West,270,0.0,0.0,74,0.00,,,0.00,VWS V14.01,2013-01-25 13:19:00,
2013-01-25 06:24:00,18.3,11.4,26.97,West,270,0.0,0.0,74,0.00,,,0.00,VWS V14.01,2013-01-25 13:24:00,
2013-01-25 06:29:00,18.1,11.2,26.97,West,270,0.0,0.0,74,0.00,,,0.00,VWS V14.01,2013-01-25 13:29:00,
2013-01-25 06:34:00,18.1,11.2,26.97,West,270,0.0,0.0,74,0.00,,,0.00,VWS V14.01,2013-01-25 13:34:00,
2013-01-25 06:39:00,17.9,11.0,26.97,West,270,0.0,0.0,74,0.00,,,0.00,VWS V14.01,2013-01-25 13:39:00,
2013-01-25 06:44:00,17.7,10.8,26.97,West,270,0.0,0.0,74,0.00,,,0.00,VWS V14.01,2013-01-25 13:44:00,
2013-01-25 06:49:00,17.7,10.8,26.97,West,270,0.0,0.0,74,0.00,,,0.00,VWS V14.01,2013-01-25 13:49:00,
2013-01-25 06:54:00,17.4,10.6,26.97,West,270,0.0,0.0,74,0.00,,,0.00,VWS V14.01,2013-01-25 13:54:00,
2013-01-25 06:59:00,17.4,10.6,26.97,West,270,0.0,0.0,74,0.00,,,0.00,VWS V14.01,2013-01-25 13:59:00,
2013-01-25 07:04:00,17.4,10.6,26.97,West,270,0.0,0.0,74,0.00,,,0.00,VWS V14.01,2013-01-25 14:04:00,
2013-01-25 07:09:00,17.6,11.0,26.97,West,270,0.0,0.0,75,0.00,,,0.00,VWS V14.01,2013-01-25 14:09:00,
2013-01-25 07:14:00,17.4,10.9,26.97,West,270,0.0,0.0,75,0.00,,,0.00,VWS V14.01,2013-01-25 14:14:00,
2013-01-25 07:19:00,17.7,10.8,26.97,West,270,0.0,0.0,74,0.00,,,0.00,VWS V14.01,2013-01-25 14:19:00,
2013-01-25 07:24:00,17.7,11.1,26.97,SE,135,0.0,0.0,75,0.00,,,0.00,VWS V14.01,2013-01-25 14:24:00,
2013-01-25 07:29:00,17.7,11.1,26.97,SE,135,0.0,0.0,75,0.00,,,0.00,VWS V14.01,2013-01-25 14:29:00,
2013-01-25 07:34:00,19.2,13.2,26.98,SE,135,0.0,0.0,77,0.00,,,0.00,VWS V14.01,2013-01-25 14:34:00,
2013-01-25 07:39:00,21.0,15.2,26.98,SE,135,0.0,0.0,78,0.00,,,0.00,VWS V14.01,2013-01-25 14:39:00,
2013-01-25 07:44:00,23.5,17.4,26.98,SE,135,0.0,0.0,77,0.00,,,0.00,VWS V14.01,2013-01-25 14:44:00,
2013-01-25 07:49:00,27.3,19.8,26.98,SE,135,0.0,0.0,73,0.00,,,0.00,VWS V14.01,2013-01-25 14:49:00,
2013-01-25 07:55:00,29.8,21.2,26.98,SE,135,0.0,0.0,70,0.00,,,0.00,VWS V14.01,2013-01-25 14:55:00,
2013-01-25 08:00:00,31.8,21.8,26.99,SE,135,0.0,0.0,66,0.00,,,0.00,VWS V14.01,2013-01-25 15:00:00,
2013-01-25 08:05:00,33.6,22.0,26.98,SE,135,0.0,0.0,62,0.00,,,0.00,VWS V14.01,2013-01-25 15:05:00,
2013-01-25 08:10:00,34.3,21.9,26.98,SE,135,0.0,0.0,60,0.00,,,0.00,VWS V14.01,2013-01-25 15:10:00,
2013-01-25 08:15:00,34.5,21.7,26.98,SE,135,0.0,0.0,59,0.00,,,0.00,VWS V14.01,2013-01-25 15:15:00,
2013-01-25 08:20:00,34.8,22.0,26.98,SE,135,0.0,0.0,59,0.00,,,0.00,VWS V14.01,2013-01-25 15:20:00,
2013-01-25 08:25:00,35.4,22.1,26.98,SE,135,0.0,0.0,58,0.00,,,0.00,VWS V14.01,2013-01-25 15:25:00,
2013-01-25 08:30:00,37.2,23.8,26.99,WSW,248,0.0,0.0,58,0.00,,,0.00,VWS V14.01,2013-01-25 15:30:00,
2013-01-25 08:35:00,39.3,25.4,26.98,WSW,248,0.0,0.0,57,0.00,,,0.00,VWS V14.01,2013-01-25 15:35:00,
2013-01-25 08:40:00,41.5,27.0,26.98,WSW,248,0.0,0.0,56,0.00,,,0.00,VWS V14.01,2013-01-25 15:40:00,
2013-01-25 08:45:00,44.9,28.8,26.98,WSW,248,0.0,0.0,53,0.00,,,0.00,VWS V14.01,2013-01-25 15:45:00,
2013-01-25 08:50:00,46.5,28.9,26.98,West,270,0.0,0.0,50,0.00,,,0.00,VWS V14.01,2013-01-25 15:50:00,
2013-01-25 08:55:00,47.4,28.7,26.98,West,270,0.0,0.0,48,0.00,,,0.00,VWS V14.01,2013-01-25 15:55:00,
2013-01-25 09:00:00,48.7,29.4,26.98,West,270,0.0,0.0,47,0.00,,,0.00,VWS V14.01,2013-01-25 16:00:00,
2013-01-25 09:05:00,49.6,29.7,26.98,WNW,292,0.0,0.0,46,0.00,,,0.00,VWS V14.01,2013-01-25 16:05:00,
2013-01-25 09:10:00,50.3,29.8,26.99,West,270,0.0,0.0,45,0.00,,,0.00,VWS V14.01,2013-01-25 16:10:00,
2013-01-25 09:15:00,51.6,30.4,26.99,West,270,0.0,0.0,44,0.00,,,0.00,VWS V14.01,2013-01-25 16:15:00,
2013-01-25 09:20:00,51.9,30.1,26.99,WNW,292,0.0,0.0,43,0.00,,,0.00,VWS V14.01,2013-01-25 16:20:00,
2013-01-25 09:25:00,51.9,30.1,26.99,WNW,292,0.0,0.0,43,0.00,,,0.00,VWS V14.01,2013-01-25 16:25:00,
2013-01-25 09:31:00,53.2,31.3,26.99,WNW,292,0.0,0.0,43,0.00,,,0.00,VWS V14.01,2013-01-25 16:31:00,
2013-01-25 09:36:00,55.9,32.6,26.99,WNW,292,0.0,0.0,41,0.00,,,0.00,VWS V14.01,2013-01-25 16:36:00,
2013-01-25 09:41:00,57.7,32.9,26.99,WNW,292,0.0,0.0,39,0.00,,,0.00,VWS V14.01,2013-01-25 16:41:00,
2013-01-25 09:46:00,59.5,33.9,26.99,West,270,0.0,0.0,38,0.00,,,0.00,VWS V14.01,2013-01-25 16:46:00,
2013-01-25 09:51:00,61.5,34.3,26.99,SW,225,0.0,0.0,36,0.00,,,0.00,VWS V14.01,2013-01-25 16:51:00,
2013-01-25 09:56:00,64.0,35.1,26.99,South,180,0.0,0.0,34,0.00,,,0.00,VWS V14.01,2013-01-25 16:56:00,
2013-01-25 10:01:00,64.9,33.6,26.99,SE,135,3.1,3.1,31,0.00,,,0.00,VWS V14.01,2013-01-25 17:01:00,
2013-01-25 10:06:00,63.6,30.8,26.99,South,180,5.3,5.3,29,0.00,,,0.00,VWS V14.01,2013-01-25 17:06:00,
2013-01-25 10:11:00,60.6,28.2,26.99,SSE,158,3.3,7.6,29,0.00,,,0.00,VWS V14.01,2013-01-25 17:11:00,
2013-01-25 10:16:00,58.8,27.5,26.99,SSE,158,2.2,2.2,30,0.00,,,0.00,VWS V14.01,2013-01-25 17:16:00,
2013-01-25 10:21:00,57.0,26.7,26.99,ESE,112,3.8,7.6,31,0.00,,,0.00,VWS V14.01,2013-01-25 17:21:00,
2013-01-25 10:26:00,57.0,26.7,26.99,ESE,112,7.1,7.6,31,0.00,,,0.00,VWS V14.01,2013-01-25 17:26:00,
2013-01-25 10:31:00,57.3,27.0,26.99,SE,135,3.8,3.8,31,0.00,,,0.00,VWS V14.01,2013-01-25 17:31:00,
2013-01-25 10:36:00,58.6,28.1,26.99,East,90,2.9,6.4,31,0.00,,,0.00,VWS V14.01,2013-01-25 17:36:00,
2013-01-25 10:42:00,59.7,28.2,26.99,SE,135,4.4,6.4,30,0.00,,,0.00,VWS V14.01,2013-01-25 17:42:00,
2013-01-25 10:47:00,61.5,28.1,26.99,East,90,4.9,4.9,28,0.00,,,0.00,VWS V14.01,2013-01-25 17:47:00,
2013-01-25 10:52:00,61.8,28.4,26.98,SE,135,9.3,9.3,28,0.00,,,0.00,VWS V14.01,2013-01-25 17:52:00,
2013-01-25 10:57:00,61.1,27.8,26.97,ESE,112,3.5,9.3,28,0.00,,,0.00,VWS V14.01,2013-01-25 17:57:00,
2013-01-25 11:02:00,60.6,27.3,26.97,ESE,112,1.3,9.3,28,0.00,,,0.00,VWS V14.01,2013-01-25 18:02:00,
2013-01-25 11:07:00,60.0,26.8,26.97,ESE,112,4.6,9.3,28,0.00,,,0.00,VWS V14.01,2013-01-25 18:07:00,
2013-01-25 11:12:00,60.0,26.8,26.97,ESE,112,7.6,9.3,28,0.00,,,0.00,VWS V14.01,2013-01-25 18:12:00,
2013-01-25 11:17:00,59.5,26.4,26.97,ESE,112,7.6,7.6,28,0.00,,,0.00,VWS V14.01,2013-01-25 18:17:00,
2013-01-25 11:22:00,59.1,26.0,26.97,ESE,112,8.9,8.9,28,0.00,,,0.00,VWS V14.01,2013-01-25 18:22:00,
2013-01-25 11:27:00,58.1,25.2,26.96,ESE,112,9.1,9.1,28,0.00,,,0.00,VWS V14.01,2013-01-25 18:27:00,
2013-01-25 11:32:00,56.8,24.9,26.97,SE,135,4.6,8.9,29,0.00,,,0.00,VWS V14.01,2013-01-25 18:32:00,
2013-01-25 11:37:00,56.3,24.5,26.96,SE,135,8.0,8.9,29,0.00,,,0.00,VWS V14.01,2013-01-25 18:37:00,
2013-01-25 11:42:00,57.0,25.9,26.97,SE,135,9.6,9.6,30,0.00,,,0.00,VWS V14.01,2013-01-25 18:42:00,
2013-01-25 11:47:00,57.9,25.0,26.96,SE,135,10.5,10.5,28,0.00,,,0.00,VWS V14.01,2013-01-25 18:47:00,
2013-01-25 11:52:00,57.7,24.8,26.96,SE,135,12.7,12.7,28,0.00,,,0.00,VWS V14.01,2013-01-25 18:52:00,
2013-01-25 11:57:00,57.9,25.0,26.96,ESE,112,10.0,12.7,28,0.00,,,0.00,VWS V14.01,2013-01-25 18:57:00,
2013-01-25 12:02:00,57.3,23.6,26.96,SE,135,12.5,12.5,27,0.00,,,0.00,VWS V14.01,2013-01-25 19:02:00,
2013-01-25 12:07:00,56.1,23.5,26.96,ESE,112,10.5,12.5,28,0.00,,,0.00,VWS V14.01,2013-01-25 19:07:00,
2013-01-25 12:13:00,55.2,23.5,26.95,ESE,112,8.2,12.5,29,0.00,,,0.00,VWS V14.01,2013-01-25 19:13:00,
2013-01-25 12:18:00,53.7,23.0,26.95,ESE,112,5.1,6.4,30,0.00,,,0.00,VWS V14.01,2013-01-25 19:18:00,
2013-01-25 12:23:00,53.0,23.2,26.95,SE,135,2.2,6.4,31,0.00,,,0.00,VWS V14.01,2013-01-25 19:23:00,
2013-01-25 12:28:00,53.7,24.6,26.94,ESE,112,8.9,8.9,32,0.00,,,0.00,VWS V14.01,2013-01-25 19:28:00,
2013-01-25 12:33:00,54.6,24.6,26.94,East,90,10.9,10.9,31,0.00,,,0.00,VWS V14.01,2013-01-25 19:33:00,
2013-01-25 12:38:00,55.2,25.1,26.94,ESE,112,8.9,10.9,31,0.00,,,0.00,VWS V14.01,2013-01-25 19:38:00,
2013-01-25 12:43:00,55.4,24.5,26.94,ESE,112,9.8,10.9,30,0.00,,,0.00,VWS V14.01,2013-01-25 19:43:00,
2013-01-25 12:48:00,55.5,24.6,26.94,SE,135,11.4,11.4,30,0.00,,,0.00,VWS V14.01,2013-01-25 19:48:00,
2013-01-25 12:53:00,55.5,24.6,26.94,ESE,112,7.8,11.4,30,0.00,,,0.00,VWS V14.01,2013-01-25 19:53:00,
2013-01-25 12:58:00,55.5,24.6,26.94,SE,135,9.6,11.4,30,0.00,,,0.00,VWS V14.01,2013-01-25 19:58:00,
2013-01-25 13:03:00,55.4,25.3,26.94,SE,135,0.0,7.8,31,0.00,,,0.00,VWS V14.01,2013-01-25 20:03:00,
2013-01-25 13:08:00,55.5,25.4,26.94,SE,135,8.0,10.7,31,0.00,,,0.00,VWS V14.01,2013-01-25 20:08:00,
2013-01-25 13:13:00,55.9,25.7,26.93,SE,135,6.7,10.7,31,0.00,,,0.00,VWS V14.01,2013-01-25 20:13:00,
2013-01-25 13:18:00,55.9,25.7,26.93,ESE,112,4.4,5.1,31,0.00,,,0.00,VWS V14.01,2013-01-25 20:18:00,
2013-01-25 13:23:00,56.4,26.2,26.94,SE,135,3.8,6.7,31,0.00,,,0.00,VWS V14.01,2013-01-25 20:23:00,
2013-01-25 13:28:00,56.4,25.4,26.93,South,180,0.0,6.7,30,0.00,,,0.00,VWS V14.01,2013-01-25 20:28:00,
2013-01-25 13:33:00,56.8,25.7,26.93,SSE,158,0.0,3.1,30,0.00,,,0.00,VWS V14.01,2013-01-25 20:33:00,
2013-01-25 13:38:00,56.4,25.4,26.93,South,180,3.8,7.3,30,0.00,,,0.00,VWS V14.01,2013-01-25 20:38:00,
2013-01-25 13:43:00,56.4,25.4,26.93,SE,135,4.6,7.3,30,0.00,,,0.00,VWS V14.01,2013-01-25 20:43:00,
2013-01-25 13:49:00,56.1,25.1,26.93,ESE,112,5.5,5.5,30,0.00,,,0.00,VWS V14.01,2013-01-25 20:49:00,
2013-01-25 13:54:00,55.9,24.9,26.93,ESE,112,0.0,5.5,30,0.00,,,0.00,VWS V14.01,2013-01-25 20:54:00,
2013-01-25 13:59:00,55.7,24.8,26.92,ESE,112,2.9,5.5,30,0.00,,,0.00,VWS V14.01,2013-01-25 20:59:00,
2013-01-25 14:04:00,55.2,24.3,26.92,SE,135,2.0,3.1,30,0.00,,,0.00,VWS V14.01,2013-01-25 21:04:00,
2013-01-25 14:09:00,54.3,24.3,26.92,ESE,112,5.8,8.0,31,0.00,,,0.00,VWS V14.01,2013-01-25 21:09:00,
2013-01-25 14:14:00,53.4,23.5,26.92,SE,135,3.8,8.0,31,0.00,,,0.00,VWS V14.01,2013-01-25 21:14:00,
2013-01-25 14:19:00,52.1,23.2,26.92,SE,135,7.8,10.7,32,0.00,,,0.00,VWS V14.01,2013-01-25 21:19:00,
2013-01-25 14:24:00,51.6,23.5,26.92,SSE,158,9.1,10.7,33,0.00,,,0.00,VWS V14.01,2013-01-25 21:24:00,
2013-01-25 14:29:00,51.4,24.0,26.93,South,180,9.8,10.7,34,0.00,,,0.00,VWS V14.01,2013-01-25 21:29:00,
2013-01-25 14:34:00,51.0,23.6,26.93,SSE,158,10.0,10.0,34,0.00,,,0.00,VWS V14.01,2013-01-25 21:34:00,
2013-01-25 14:39:00,50.9,23.5,26.93,South,180,10.0,10.0,34,0.00,,,0.00,VWS V14.01,2013-01-25 21:39:00,
2013-01-25 14:44:00,50.5,23.9,26.93,ESE,112,9.3,10.0,35,0.00,,,0.00,VWS V14.01,2013-01-25 21:44:00,
2013-01-25 14:49:00,50.3,23.7,26.93,SE,135,1.5,2.6,35,0.00,,,0.00,VWS V14.01,2013-01-25 21:49:00,
2013-01-25 14:54:00,50.1,23.5,26.93,ESE,112,3.5,4.4,35,0.00,,,0.00,VWS V14.01,2013-01-25 21:54:00,
2013-01-25 14:59:00,50.3,24.4,26.93,ESE,112,4.6,5.1,36,0.00,,,0.00,VWS V14.01,2013-01-25 21:59:00,
2013-01-25 15:04:00,50.7,24.1,26.93,ESE,112,4.4,4.4,35,0.00,,,0.00,VWS V14.01,2013-01-25 22:04:00,
2013-01-25 15:09:00,50.7,24.7,26.93,ESE,112,3.8,4.4,36,0.00,,,0.00,VWS V14.01,2013-01-25 22:09:00,
2013-01-25 15:14:00,50.7,24.7,26.93,ESE,112,9.6,9.6,36,0.00,,,0.00,VWS V14.01,2013-01-25 22:14:00,
2013-01-25 15:19:00,50.7,24.7,26.93,SE,135,5.3,6.7,36,0.00,,,0.00,VWS V14.01,2013-01-25 22:19:00,
2013-01-25 15:24:00,50.5,24.6,26.93,ESE,112,4.0,7.1,36,0.00,,,0.00,VWS V14.01,2013-01-25 22:24:00,
2013-01-25 15:30:00,50.1,24.2,26.93,SE,135,7.3,7.3,36,0.00,,,0.00,VWS V14.01,2013-01-25 22:30:00,
2013-01-25 15:35:00,49.8,23.9,26.93,ESE,112,2.6,4.4,36,0.00,,,0.00,VWS V14.01,2013-01-25 22:35:00,
2013-01-25 15:40:00,49.2,24.1,26.93,ESE,112,3.1,4.6,37,0.00,,,0.00,VWS V14.01,2013-01-25 22:40:00,
2013-01-25 15:45:00,49.2,24.1,26.93,ESE,112,0.0,4.6,37,0.00,,,0.00,VWS V14.01,2013-01-25 22:45:00,
2013-01-25 15:50:00,48.9,23.8,26.94,SE,135,0.0,3.3,37,0.00,,,0.00,VWS V14.01,2013-01-25 22:50:00,
2013-01-25 15:55:00,48.5,23.4,26.93,ESE,112,2.2,3.3,37,0.00,,,0.00,VWS V14.01,2013-01-25 22:55:00,
2013-01-25 16:00:00,48.5,24.1,26.93,ESE,112,2.4,2.4,38,0.00,,,0.00,VWS V14.01,2013-01-25 23:00:00,
2013-01-25 16:05:00,48.3,23.9,26.93,ESE,112,0.0,2.4,38,0.00,,,0.00,VWS V14.01,2013-01-25 23:05:00,
2013-01-25 16:10:00,48.2,23.8,26.93,ESE,112,3.3,3.3,38,0.00,,,0.00,VWS V14.01,2013-01-25 23:10:00,
2013-01-25 16:15:00,47.8,23.4,26.94,ESE,112,4.4,4.4,38,0.00,,,0.00,VWS V14.01,2013-01-25 23:15:00,
2013-01-25 16:20:00,47.4,23.1,26.94,ESE,112,2.0,4.4,38,0.00,,,0.00,VWS V14.01,2013-01-25 23:20:00,
2013-01-25 16:25:00,47.1,23.4,26.94,ESE,112,2.4,4.4,39,0.00,,,0.00,VWS V14.01,2013-01-25 23:25:00,
2013-01-25 16:30:00,46.7,23.7,26.94,ESE,112,6.9,6.9,40,0.00,,,0.00,VWS V14.01,2013-01-25 23:30:00,
2013-01-25 16:35:00,46.2,23.8,26.94,SE,135,3.5,6.9,41,0.00,,,0.00,VWS V14.01,2013-01-25 23:35:00,
2013-01-25 16:40:00,45.6,23.9,26.94,ESE,112,1.3,6.9,42,0.00,,,0.00,VWS V14.01,2013-01-25 23:40:00,
2013-01-25 16:45:00,44.9,23.8,26.94,East,90,3.1,3.1,43,0.00,,,0.00,VWS V14.01,2013-01-25 23:45:00,
2013-01-25 16:50:00,44.4,23.3,26.94,ESE,112,0.0,3.1,43,0.00,,,0.00,VWS V14.01,2013-01-25 23:50:00,
2013-01-25 16:55:00,43.8,22.8,26.94,East,90,0.0,3.1,43,0.00,,,0.00,VWS V14.01,2013-01-25 23:55:00,
2013-01-25 17:00:00,43.3,22.9,26.94,East,90,0.0,0.0,44,0.00,,,0.00,VWS V14.01,2013-01-26 00:00:00,
2013-01-25 17:05:00,42.9,22.5,26.93,East,90,0.0,0.0,44,0.00,,,0.00,VWS V14.01,2013-01-26 00:05:00,
2013-01-25 17:10:00,42.4,22.6,26.93,East,90,0.0,0.0,45,0.00,,,0.00,VWS V14.01,2013-01-26 00:10:00,
2013-01-25 17:15:00,41.9,22.1,26.93,East,90,0.0,0.0,45,0.00,,,0.00,VWS V14.01,2013-01-26 00:15:00,
2013-01-25 17:20:00,41.5,22.3,26.93,East,90,0.0,0.0,46,0.00,,,0.00,VWS V14.01,2013-01-26 00:20:00,
2013-01-25 17:25:00,41.0,21.8,26.93,East,90,0.0,0.0,46,0.00,,,0.00,VWS V14.01,2013-01-26 00:25:00,
2013-01-25 17:30:00,40.2,21.1,26.94,East,90,0.0,0.0,46,0.00,,,0.00,VWS V14.01,2013-01-26 00:30:00,
2013-01-25 17:35:00,39.7,21.1,26.94,East,90,0.0,0.0,47,0.00,,,0.00,VWS V14.01,2013-01-26 00:35:00,
2013-01-25 17:40:00,39.0,20.5,26.93,East,90,0.0,0.0,47,0.00,,,0.00,VWS V14.01,2013-01-26 00:40:00,
2013-01-25 17:45:00,38.4,20.4,26.94,SE,135,0.0,0.0,48,0.00,,,0.00,VWS V14.01,2013-01-26 00:45:00,
2013-01-25 17:50:00,37.9,20.5,26.94,SSE,158,0.0,0.0,49,0.00,,,0.00,VWS V14.01,2013-01-26 00:50:00,
2013-01-25 17:56:00,37.2,20.3,26.94,SSE,158,0.0,0.0,50,0.00,,,0.00,VWS V14.01,2013-01-26 00:56:00,
2013-01-25 18:01:00,36.6,20.2,26.94,SSE,158,0.0,0.0,51,0.00,,,0.00,VWS V14.01,2013-01-26 01:01:00,
2013-01-25 18:06:00,36.1,19.3,26.94,SSE,158,0.0,0.0,50,0.00,,,0.00,VWS V14.01,2013-01-26 01:06:00,
2013-01-25 18:11:00,35.6,19.3,26.93,SSE,158,0.0,0.0,51,0.00,,,0.00,VWS V14.01,2013-01-26 01:11:00,
2013-01-25 18:16:00,35.2,19.4,26.93,West,270,0.0,0.0,52,0.00,,,0.00,VWS V14.01,2013-01-26 01:16:00,
2013-01-25 18:21:00,34.5,18.7,26.94,SSW,202,0.0,0.0,52,0.00,,,0.00,VWS V14.01,2013-01-26 01:21:00,
2013-01-25 18:26:00,34.3,19.4,26.94,SSW,202,0.0,0.0,54,0.00,,,0.00,VWS V14.01,2013-01-26 01:26:00,
2013-01-25 18:31:00,34.1,19.6,26.94,WNW,292,0.0,0.0,55,0.00,,,0.00,VWS V14.01,2013-01-26 01:31:00,
2013-01-25 18:36:00,33.9,19.9,26.94,West,270,0.0,0.0,56,0.00,,,0.00,VWS V14.01,2013-01-26 01:36:00,
2013-01-25 18:41:00,33.8,20.2,26.94,NNE,22,0.0,0.0,57,0.00,,,0.00,VWS V14.01,2013-01-26 01:41:00,
2013-01-25 18:46:00,33.6,20.0,26.94,NNE,22,0.0,0.0,57,0.00,,,0.00,VWS V14.01,2013-01-26 01:46:00,
2013-01-25 18:51:00,33.2,19.6,26.94,NNE,22,0.0,0.0,57,0.00,,,0.00,VWS V14.01,2013-01-26 01:51:00,
2013-01-25 18:56:00,32.9,19.4,26.94,SE,135,0.0,0.0,57,0.00,,,0.00,VWS V14.01,2013-01-26 01:56:00,
2013-01-25 19:01:00,32.7,19.2,26.94,SE,135,0.0,0.0,57,0.00,,,0.00,VWS V14.01,2013-01-26 02:01:00,
2013-01-25 19:06:00,32.1,19.0,26.94,East,90,0.0,0.0,58,0.00,,,0.00,VWS V14.01,2013-01-26 02:06:00,
2013-01-25 19:11:00,31.8,18.7,26.94,NNE,22,0.0,0.0,58,0.00,,,0.00,VWS V14.01,2013-01-26 02:11:00,
2013-01-25 19:16:00,31.6,18.5,26.94,NNE,22,0.0,0.0,58,0.00,,,0.00,VWS V14.01,2013-01-26 02:16:00,
2013-01-25 19:21:00,31.1,18.5,26.94,South,180,0.0,0.0,59,0.00,,,0.00,VWS V14.01,2013-01-26 02:21:00,
2013-01-25 19:26:00,30.9,18.3,26.94,South,180,0.0,0.0,59,0.00,,,0.00,VWS V14.01,2013-01-26 02:26:00,
2013-01-25 19:31:00,30.7,18.5,26.94,NE,45,0.0,0.0,60,0.00,,,0.00,VWS V14.01,2013-01-26 02:31:00,
2013-01-25 19:36:00,30.3,18.1,26.94,South,180,0.0,0.0,60,0.00,,,0.00,VWS V14.01,2013-01-26 02:36:00,
2013-01-25 19:41:00,30.2,18.4,26.94,ESE,112,0.0,0.0,61,0.00,,,0.00,VWS V14.01,2013-01-26 02:41:00,
2013-01-25 19:46:00,30.2,18.8,26.93,East,90,0.0,0.0,62,0.00,,,0.00,VWS V14.01,2013-01-26 02:46:00,
2013-01-25 19:51:00,30.0,18.6,26.93,ENE,68,0.0,0.0,62,0.00,,,0.00,VWS V14.01,2013-01-26 02:51:00,
2013-01-25 19:56:00,30.0,19.0,26.93,East,90,0.0,0.0,63,0.00,,,0.00,VWS V14.01,2013-01-26 02:56:00,
2013-01-25 20:01:00,30.0,19.0,26.94,SE,135,0.0,0.0,63,0.00,,,0.00,VWS V14.01,2013-01-26 03:01:00,
2013-01-25 20:06:00,30.3,19.6,26.94,South,180,0.0,0.0,64,0.00,,,0.00,VWS V14.01,2013-01-26 03:06:00,
2013-01-25 20:12:00,30.5,19.8,26.93,SSE,158,0.0,0.0,64,0.00,,,0.00,VWS V14.01,2013-01-26 03:12:00,
2013-01-25 20:17:00,30.7,20.0,26.92,SSE,158,0.0,0.0,64,0.00,,,0.00,VWS V14.01,2013-01-26 03:17:00,
2013-01-25 20:22:00,30.7,20.7,26.92,SSE,158,0.0,3.5,66,0.00,,,0.00,VWS V14.01,2013-01-26 03:22:00,
2013-01-25 20:27:00,31.2,21.9,26.92,SSE,158,4.4,4.4,68,0.00,,,0.00,VWS V14.01,2013-01-26 03:27:00,
2013-01-25 20:32:00,31.8,23.1,26.92,ESE,112,8.2,9.6,70,0.00,,,0.00,VWS V14.01,2013-01-26 03:32:00,
2013-01-25 20:37:00,32.5,23.8,26.92,SSE,158,8.5,9.6,70,0.00,,,0.00,VWS V14.01,2013-01-26 03:37:00,
2013-01-25 20:42:00,33.2,24.1,26.92,SE,135,8.0,9.6,69,0.00,,,0.00,VWS V14.01,2013-01-26 03:42:00,
2013-01-25 20:47:00,34.1,25.0,26.92,SSE,158,2.0,7.6,69,0.00,,,0.00,VWS V14.01,2013-01-26 03:47:00,
2013-01-25 20:52:00,34.7,24.9,26.92,SSE,158,10.2,10.2,67,0.00,,,0.00,VWS V14.01,2013-01-26 03:52:00,
2013-01-25 20:57:00,35.0,24.8,26.92,SE,135,5.5,10.5,66,0.00,,,0.00,VWS V14.01,2013-01-26 03:57:00,
2013-01-25 21:02:00,34.8,24.2,26.92,SE,135,5.5,5.5,65,0.00,,,0.00,VWS V14.01,2013-01-26 04:02:00,
2013-01-25 21:07:00,34.7,24.1,26.92,SE,135,5.3,5.5,65,0.00,,,0.00,VWS V14.01,2013-01-26 04:07:00,
2013-01-25 21:12:00,34.1,23.6,26.91,SE,135,0.0,5.5,65,0.00,,,0.00,VWS V14.01,2013-01-26 04:12:00,
2013-01-25 21:17:00,33.8,23.3,26.91,SE,135,0.0,0.0,65,0.00,,,0.00,VWS V14.01,2013-01-26 04:17:00,
2013-01-25 21:22:00,33.4,22.9,26.91,ESE,112,0.0,0.0,65,0.00,,,0.00,VWS V14.01,2013-01-26 04:22:00,
2013-01-25 21:27:00,33.0,22.5,26.91,South,180,0.0,0.0,65,0.00,,,0.00,VWS V14.01,2013-01-26 04:27:00,
2013-01-25 21:32:00,32.9,22.4,26.91,SSW,202,0.0,0.0,65,0.00,,,0.00,VWS V14.01,2013-01-26 04:32:00,
2013-01-25 21:37:00,32.7,22.2,26.91,SSE,158,0.0,0.0,65,0.00,,,0.00,VWS V14.01,2013-01-26 04:37:00,
2013-01-25 21:42:00,32.9,23.5,26.91,SE,135,2.0,12.7,68,0.00,,,0.00,VWS V14.01,2013-01-26 04:42:00,
2013-01-25 21:47:00,33.4,24.0,26.91,ESE,112,7.3,7.3,68,0.00,,,0.00,VWS V14.01,2013-01-26 04:47:00,
2013-01-25 21:52:00,34.1,24.7,26.91,SE,135,1.3,7.3,68,0.00,,,0.00,VWS V14.01,2013-01-26 04:52:00,
2013-01-25 21:57:00,35.2,25.0,26.90,SSE,158,5.5,7.3,66,0.00,,,0.00,VWS V14.01,2013-01-26 04:57:00,
2013-01-25 22:00:00,35.4,25.2,26.91,South,180,0.0,7.3,66,0.00,,,0.00,VWS V14.01,2013-01-26 05:00:00,
2013-01-25 22:01:00,35.4,25.2,26.91,South,180,0.0,0.0,66,0.00,,,0.00,VWS V14.01,2013-01-26 05:01:00,
2013-01-25 22:06:00,35.4,24.5,26.91,SSE,158,0.0,0.0,64,0.00,,,0.00,VWS V14.01,2013-01-26 05:06:00,
2013-01-25 22:08:00,35.6,24.6,26.91,South,180,3.1,3.1,64,0.00,,,0.00,VWS V14.01,2013-01-26 05:08:00,
2013-01-25 22:13:00,35.6,24.6,26.90,SSE,158,3.1,3.1,64,0.00,,,0.00,VWS V14.01,2013-01-26 05:13:00,
2013-01-25 22:18:00,35.6,24.6,26.90,SSE,158,0.0,3.8,64,0.00,,,0.00,VWS V14.01,2013-01-26 05:18:00,
2013-01-25 22:23:00,35.7,24.4,26.90,South,180,0.0,7.6,63,0.00,,,0.00,VWS V14.01,2013-01-26 05:23:00,
2013-01-25 22:28:00,35.6,24.3,26.90,West,270,0.0,7.6,63,0.00,,,0.00,VWS V14.01,2013-01-26 05:28:00,
2013-01-25 22:33:00,35.4,23.7,26.90,NW,315,0.0,0.0,62,0.00,,,0.00,VWS V14.01,2013-01-26 05:33:00,
2013-01-25 22:39:00,34.8,23.1,26.90,WNW,292,0.0,0.0,62,0.00,,,0.00,VWS V14.01,2013-01-26 05:39:00,
2013-01-25 22:44:00,34.5,22.8,26.90,SSW,202,2.0,2.0,62,0.00,,,0.00,VWS V14.01,2013-01-26 05:44:00,
2013-01-25 22:49:00,34.3,23.0,26.90,West,270,0.0,2.0,63,0.00,,,0.00,VWS V14.01,2013-01-26 05:49:00,
2013-01-25 22:54:00,33.9,22.6,26.89,WNW,292,0.0,2.0,63,0.00,,,0.00,VWS V14.01,2013-01-26 05:54:00,
2013-01-25 22:59:00,33.6,22.4,26.89,SSE,158,0.0,2.0,63,0.00,,,0.00,VWS V14.01,2013-01-26 05:59:00,
2013-01-25 23:04:00,33.6,22.4,26.89,South,180,0.0,0.0,63,0.00,,,0.00,VWS V14.01,2013-01-26 06:04:00,
2013-01-25 23:09:00,33.4,22.2,26.89,South,180,0.0,0.0,63,0.00,,,0.00,VWS V14.01,2013-01-26 06:09:00,
2013-01-25 23:14:00,33.6,22.7,26.88,SSW,202,2.2,3.1,64,0.00,,,0.00,VWS V14.01,2013-01-26 06:14:00,
2013-01-25 23:19:00,33.4,22.2,26.88,SSW,202,0.0,0.0,63,0.00,,,0.00,VWS V14.01,2013-01-26 06:19:00,
2013-01-25 23:24:00,33.0,22.2,26.88,South,180,0.8,3.8,64,0.00,,,0.00,VWS V14.01,2013-01-26 06:24:00,
2013-01-25 23:29:00,33.0,22.2,26.88,WSW,248,0.0,3.8,64,0.00,,,0.00,VWS V14.01,2013-01-26 06:29:00,
2013-01-25 23:34:00,32.7,21.9,26.88,South,180,0.0,0.0,64,0.00,,,0.00,VWS V14.01,2013-01-26 06:34:00,
2013-01-25 23:39:00,32.7,21.5,26.87,South,180,0.0,0.0,63,0.00,,,0.00,VWS V14.01,2013-01-26 06:39:00,
2013-01-25 23:44:00,32.5,21.7,26.88,WNW,292,0.0,0.0,64,0.00,,,0.00,VWS V14.01,2013-01-26 06:44:00,
2013-01-25 23:49:00,32.1,20.9,26.87,WNW,292,0.0,0.0,63,0.00,,,0.00,VWS V14.01,2013-01-26 06:49:00,
2013-01-25 23:54:00,31.8,21.0,26.87,NW,315,0.0,0.0,64,0.00,,,0.00,VWS V14.01,2013-01-26 06:54:00,
2013-01-25 23:59:00,31.2,20.5,26.87,NW,315,0.0,0.0,64,0.00,,,0.00,VWS V14.01,2013-01-26 06:59:00,